• Join FlightAware (Why Join?)
  • Login
  • US Flag 
01:40AM EST


 

Airport Tracker/Info


-or-


 

Live Flight TrackerFlight Track Log ✈ VH-SCC ✈ 30-Jun-2013 ✈ YSBK / BWU - YEML / EMD

Flight Track Log - Related Links

Times and Time Zones

All times are in EDT time to prevent confusion due to time zone crossing. See the VH-SCC flight status page for this flight to view local times or setup timezone preferences in your user account.

Time Position Orientation Groundspeed Altitude Reporting Facility
EDT Latitude Longitude Course Direction KTS MPH feet Rate Location/Type
12:19AM -33.8452 150.9409 141° Southeast 14,500  Level Aus ATC (Calculated)
12:19AM -33.9261 151.0211 331° Northwest 159 183 1,400 -13,020 Descending Aus ATC (RADAR)
12:20AM -33.9023 151.0052 331° Northwest 187 215 1,700 1,080 Climbing Aus ATC (RADAR)
12:21AM -33.8764 150.9591 304° West 193 222 3,000 900 Climbing Aus ATC (RADAR)
12:21AM -33.8556 150.9242 306° West 217 250 3,000 660 Level Aus ATC (RADAR)
12:22AM -33.8268 150.8777 307° West 227 261 3,900 2,520 Climbing Aus ATC (RADAR)
12:23AM -33.7638 150.8459 337° Northwest 204 235 7,700 3,060 Climbing Aus ATC (RADAR)
12:24AM -33.7303 150.8356 346° North 208 239 9,000 2,220 Climbing Aus ATC (RADAR)
12:24AM -33.6848 150.8229 347° North 246 283 10,500 2,640 Climbing Aus ATC (RADAR)
12:25AM -33.6293 150.8055 345° North 261 300 12,800 3,300 Climbing Aus ATC (RADAR)
12:26AM -33.5650 150.7860 346° North 258 297 16,000 3,240 Climbing Aus ATC (RADAR)
12:27AM -33.5084 150.7692 346° North 250 288 18,500 2,820 Climbing Aus ATC (RADAR)
12:27AM -33.4673 150.7562 345° North 244 281 20,000 2,460 Climbing Aus ATC (RADAR)
12:28AM -33.4141 150.7401 346° North 254 292 21,800 2,460 Climbing Aus ATC (RADAR)
12:29AM -33.3735 150.7273 345° North 265 305 23,300 2,640 Climbing Aus ATC (RADAR)
12:29AM -33.3322 150.7149 346° North 262 302 24,900 2,580 Climbing Aus ATC (RADAR)
12:30AM -33.2759 150.6978 346° North 249 287 27,000 1,620 Climbing Aus ATC (RADAR)
12:31AM -33.2085 150.6782 346° North 279 321 27,800 900 Climbing Aus ATC (RADAR)
12:32AM -33.1356 150.6551 345° North 327 376 28,600 1,260 Climbing Aus ATC (RADAR)
12:32AM -33.0820 150.6396 346° North 338 389 29,600 1,980 Climbing Aus ATC (RADAR)
12:33AM -33.0003 150.6144 345° North 329 379 31,600 2,280 Climbing Aus ATC (RADAR)
12:34AM -32.9579 150.6023 347° North 317 365 32,900 1,740 Climbing Aus ATC (RADAR)
12:35AM -32.8765 150.5777 346° North 305 351 34,200 1,080 Climbing Aus ATC (RADAR)
12:35AM -32.8139 150.5585 346° North 311 358 34,800 720 Climbing Aus ATC (RADAR)
12:36AM -32.7636 150.5441 346° North 320 368 35,200 960 Climbing Aus ATC (RADAR)
12:37AM -32.6919 150.5222 346° North 318 366 36,200 1,020 Climbing Aus ATC (RADAR)
12:38AM -32.6084 150.4976 346° North 311 358 37,100 900 Climbing Aus ATC (RADAR)
12:39AM -32.5452 150.4789 346° North 313 360 37,800 840 Climbing Aus ATC (RADAR)
12:40AM -32.4697 150.4557 345° North 304 350 38,500 540 Climbing Aus ATC (RADAR)
12:40AM -32.4067 150.4379 347° North 311 358 38,700 420 Climbing Aus ATC (RADAR)
12:41AM -32.3575 150.4221 345° North 315 362 39,100 600 Climbing Aus ATC (RADAR)
12:41AM -32.3084 150.4084 347° North 312 359 39,400 540 Climbing Aus ATC (RADAR)
12:42AM -32.2530 150.3915 346° North 310 357 39,800 480 Climbing Aus ATC (RADAR)
12:43AM -32.2048 150.3778 346° North 307 353 40,000 240 Climbing Aus ATC (RADAR)
12:44AM -32.1284 150.3550 346° North 312 359 40,200 60 Climbing Aus ATC (RADAR)
12:45AM -32.0425 150.3293 346° North 322 371 40,200  Level Aus ATC (RADAR)
12:45AM -31.9757 150.3103 346° North 331 381 40,200  Level Aus ATC (RADAR)
12:46AM -31.9228 150.2942 346° North 337 388 40,200  Level Aus ATC (RADAR)
12:47AM -31.8459 150.2714 346° North 344 396 40,200  Level Aus ATC (RADAR)
12:48AM -31.7504 150.2440 346° North 344 396 40,200  Level Aus ATC (RADAR)
12:49AM -31.6505 150.2145 346° North 348 400 40,200  Level Aus ATC (RADAR)
12:50AM -31.5577 150.1871 346° North 343 395 40,200  Level Aus ATC (RADAR)
12:51AM -31.4890 150.1670 346° North 340 391 40,200  Level Aus ATC (RADAR)
12:51AM -31.4354 150.1515 346° North 342 394 40,200  Level Aus ATC (RADAR)
12:52AM -31.3820 150.1362 346° North 339 390 40,200  Level Aus ATC (RADAR)
12:52AM -31.3288 150.1204 346° North 341 392 40,200  Level Aus ATC (RADAR)
12:53AM -31.2757 150.1057 347° North 337 388 40,200  Level Aus ATC (RADAR)
12:54AM -31.1998 150.0831 346° North 338 389 40,200  Level Aus ATC (RADAR)
12:55AM -31.1161 150.0591 346° North 338 389 40,200  Level Aus ATC (RADAR)
12:56AM -31.0314 150.0348 346° North 333 383 40,200  Level Aus ATC (RADAR)
12:56AM -30.9873 150.0218 346° North 338 389 40,200  Level Aus ATC (RADAR)
12:57AM -30.9114 150.0005 347° North 337 388 40,200  Level Aus ATC (RADAR)
12:58AM -30.8201 149.9744 346° North 339 390 40,200  Level Aus ATC (RADAR)
12:59AM -30.7428 149.9513 346° North 334 384 40,200  Level Aus ATC (RADAR)
01:00AM -30.6602 149.9281 346° North 339 390 40,200  Level Aus ATC (RADAR)
01:00AM -30.5902 149.9084 346° North 335 386 40,200  Level Aus ATC (RADAR)
01:01AM -30.5462 149.8951 345° North 339 390 40,200  Level Aus ATC (RADAR)
01:02AM -30.4924 149.8804 347° North 341 392 40,200  Level Aus ATC (RADAR)
01:02AM -30.4394 149.8652 346° North 339 390 40,200  Level Aus ATC (RADAR)
01:03AM -30.3860 149.8500 346° North 340 391 40,200  Level Aus ATC (RADAR)
01:03AM -30.3176 149.8306 346° North 338 389 40,200  Level Aus ATC (RADAR)
01:04AM -30.2555 149.8167 349° North 341 392 40,200  Level Aus ATC (RADAR)
01:05AM -30.2008 149.8063 351° North 342 394 40,200  Level Aus ATC (RADAR)
01:05AM -30.1548 149.7954 348° North 340 391 40,200  Level Aus ATC (RADAR)
01:06AM -30.1007 149.7838 350° North 340 391 40,200  Level Aus ATC (RADAR)
01:06AM -30.0468 149.7727 350° North 339 390 40,200  Level Aus ATC (RADAR)
01:07AM -29.9936 149.7606 349° North 336 387 40,200  Level Aus ATC (RADAR)
01:08AM -29.9401 149.7499 350° North 335 386 40,200  Level Aus ATC (RADAR)
01:08AM -29.8718 149.7348 349° North 334 384 40,200  Level Aus ATC (RADAR)
01:09AM -29.7887 149.7174 350° North 332 382 40,200  Level Aus ATC (RADAR)
01:10AM -29.7123 149.7006 349° North 330 380 40,200  Level Aus ATC (RADAR)
01:11AM -29.6595 149.6893 349° North 329 379 40,200  Level Aus ATC (RADAR)
01:11AM -29.5949 149.6725 347° North 326 375 40,200  Level Aus ATC (RADAR)
01:12AM -29.5018 149.6564 351° North 336 387 40,300  Climbing Aus ATC (RADAR)
01:13AM -29.4373 149.6366 345° North 327 376 40,300  Level Aus ATC (RADAR)
01:14AM -29.3829 149.6273 352° North 332 382 40,300  Level Aus ATC (RADAR)
01:14AM -29.3136 149.6143 351° North 336 387 40,300 -60 Level Aus ATC (RADAR)
01:15AM -29.2199 149.5960 350° North 332 382 40,200  Descending Aus ATC (RADAR)
01:16AM -29.1329 149.5736 347° North 332 382 40,300 60 Climbing Aus ATC (RADAR)
01:17AM -29.0793 149.5625 350° North 335 386 40,300  Level Aus ATC (RADAR)
01:18AM -29.0027 149.5473 350° North 336 387 40,300  Level Aus ATC (RADAR)
01:18AM -28.9499 149.5351 349° North 334 384 40,300  Level Aus ATC (RADAR)
01:19AM -28.8592 149.5150 349° North 332 382 40,300  Level Aus ATC (RADAR)
01:20AM -28.8067 149.5027 348° North 331 381 40,300  Level Aus ATC (RADAR)
01:21AM -28.7139 149.4867 351° North 335 386 40,300  Level Aus ATC (RADAR)
01:22AM -28.6460 149.4723 349° North 332 382 40,300  Level Aus ATC (RADAR)
01:22AM -28.5930 149.4613 350° North 333 383 40,300 -120 Level Aus ATC (RADAR)
01:23AM -28.5250 149.4477 350° North 332 382 40,200 -60 Descending Aus ATC (RADAR)
01:24AM -28.4195 149.4257 350° North 330 380 40,200  Level Aus ATC (RADAR)
01:25AM -28.3755 149.4147 348° North 328 377 40,200  Level Aus ATC (RADAR)
01:25AM -28.3236 149.4032 349° North 327 376 40,200 -120 Level Aus ATC (RADAR)
01:26AM -28.2681 149.3977 355° North 325 374 40,100 -120 Descending Aus ATC (RADAR)
01:27AM -28.2017 149.3823 348° North 325 374 40,100  Level Aus ATC (RADAR)
01:27AM -28.1540 149.3638 341° North 314 361 40,100  Level Aus ATC (RADAR)
01:28AM -28.0996 149.3424 341° North 311 358 40,100  Level Aus ATC (RADAR)
01:29AM -28.0167 149.3125 342° North 312 359 40,100  Level Aus ATC (RADAR)
01:30AM -27.9599 149.2948 345° North 315 362 40,100  Level Aus ATC (RADAR)
01:31AM -27.8824 149.2626 340° North 300 345 40,100  Level Aus ATC (RADAR)
01:31AM -27.8174 149.2394 342° North 311 358 40,100  Level Aus ATC (RADAR)
01:32AM -27.7697 149.2221 342° North 309 356 40,100  Level Aus ATC (RADAR)
01:33AM -27.7016 149.1976 342° North 306 352 40,100  Level Aus ATC (RADAR)
01:34AM -27.6191 149.1674 342° North 315 362 40,100  Level Aus ATC (RADAR)
01:35AM -27.5447 149.1407 342° North 306 352 40,100  Level Aus ATC (RADAR)
01:36AM -27.4496 149.1059 342° North 314 361 40,100  Level Aus ATC (RADAR)
01:37AM -27.3685 149.0760 342° North 308 354 40,100  Level Aus ATC (RADAR)
01:38AM -27.3007 149.0537 344° North 306 352 40,100  Level Aus ATC (RADAR)
01:38AM -27.2538 149.0353 341° North 304 350 40,100  Level Aus ATC (RADAR)
01:39AM -27.1926 149.0140 343° North 306 352 40,100  Level Aus ATC (RADAR)
01:40AM -27.1193 148.9875 342° North 303 349 40,100  Level Aus ATC (RADAR)
01:41AM -27.0524 148.9634 342° North 300 345 40,100  Level Aus ATC (RADAR)
01:41AM -27.0048 148.9462 342° North 307 353 40,100  Level Aus ATC (RADAR)
01:42AM -26.9509 148.9270 342° North 304 350 40,100  Level Aus ATC (RADAR)
01:42AM -26.9108 148.9124 342° North 303 349 40,100  Level Aus ATC (RADAR)
01:43AM -26.8631 148.8955 342° North 306 352 40,100  Level Aus ATC (RADAR)
01:44AM -26.8097 148.8763 342° North 302 348 40,100  Level Aus ATC (RADAR)
01:44AM -26.7617 148.8599 343° North 307 353 40,100  Level Aus ATC (RADAR)
01:46AM -26.6534 148.8214 342° North 309 356 40,100  Level Aus ATC (RADAR)
01:47AM -26.5719 148.7920 342° North 310 357 40,100  Level Aus ATC (RADAR)
01:47AM -26.5089 148.7727 345° North 318 366 40,100  Level Aus ATC (RADAR)
01:48AM -26.4656 148.7654 351° North 317 365 40,100  Level Aus ATC (RADAR)
01:49AM -26.4093 148.7540 350° North 308 354 40,100  Level Aus ATC (RADAR)
01:49AM -26.3668 148.7444 348° North 311 358 40,100 -420 Level Aus ATC (RADAR)
01:50AM -26.3158 148.7341 350° North 319 367 39,700 -780 Descending Aus ATC (RADAR)
01:50AM -26.2726 148.7254 350° North 317 365 39,300 -900 Descending Aus ATC (RADAR)
01:51AM -26.2164 148.7134 349° North 312 359 38,700 -840 Descending Aus ATC (RADAR)
01:51AM -26.1681 148.7031 349° North 301 346 38,300 -720 Descending Aus ATC (RADAR)
01:52AM -26.1162 148.6930 350° North 290 334 37,800 -780 Descending Aus ATC (RADAR)
01:53AM -26.0771 148.6852 350° North 289 333 37,400 -840 Descending Aus ATC (RADAR)
01:54AM -25.9890 148.6664 349° North 280 322 36,400 -900 Descending Aus ATC (RADAR)
01:55AM -25.9213 148.6524 349° North 271 312 35,600 -900 Descending Aus ATC (RADAR)
01:56AM -25.8462 148.6372 350° North 272 313 34,700 -780 Descending Aus ATC (RADAR)
01:56AM -25.7839 148.6246 350° North 274 315 34,200 -420 Descending Aus ATC (RADAR)
01:57AM -25.7317 148.6140 350° North 255 293 34,100 -120 Descending Aus ATC (RADAR)
01:58AM -25.6891 148.6058 350° North 265 305 34,100  Level Aus ATC (RADAR)
01:58AM -25.6466 148.5973 350° North 267 307 34,100  Level Aus ATC (RADAR)
01:59AM -25.6039 148.5884 349° North 267 307 34,100  Level Aus ATC (RADAR)
02:00AM -25.5599 148.5799 350° North 274 315 34,100  Level Aus ATC (RADAR)
02:01AM -25.4840 148.5635 349° North 279 321 34,100  Level Aus ATC (RADAR)
02:02AM -25.4145 148.5494 350° North 277 319 34,100  Level Aus ATC (RADAR)
02:02AM -25.3566 148.5383 350° North 283 326 34,100  Level Aus ATC (RADAR)
02:03AM -25.3183 148.5303 349° North 281 323 34,100  Level Aus ATC (RADAR)
02:04AM -25.2537 148.5173 350° North 284 327 34,100  Level Aus ATC (RADAR)
02:05AM -25.1626 148.4986 349° North 288 331 34,100  Level Aus ATC (RADAR)
02:06AM -25.0777 148.4813 350° North 284 327 34,100  Level Aus ATC (RADAR)
02:07AM -25.0119 148.4681 350° North 287 330 34,100  Level Aus ATC (RADAR)
02:07AM -24.9533 148.4561 349° North 286 329 34,100  Level Aus ATC (RADAR)
02:08AM -24.9073 148.4476 350° North 287 330 34,100 -360 Level Aus ATC (RADAR)
02:09AM -24.8544 148.4362 349° North 291 335 33,700 -1,440 Descending Aus ATC (RADAR)
02:09AM -24.8050 148.4270 350° North 308 354 32,300 -2,340 Descending Aus ATC (RADAR)
02:10AM -24.7524 148.4164 350° North 327 376 31,000 -2,280 Descending Aus ATC (RADAR)
02:11AM -24.6691 148.3995 350° North 334 384 29,000 -2,220 Descending Aus ATC (RADAR)
02:12AM -24.5816 148.3810 349° North 321 369 26,800 -2,400 Descending Aus ATC (RADAR)
02:12AM -24.5168 148.3689 350° North 316 364 24,900 -2,520 Descending Aus ATC (RADAR)
02:13AM -24.4673 148.3583 349° North 313 360 23,500 -2,160 Descending Aus ATC (RADAR)
02:14AM -24.4187 148.3490 350° North 306 352 22,400 -1,980 Descending Aus ATC (RADAR)
02:14AM -24.3721 148.3394 349° North 295 339 21,200 -2,280 Descending Aus ATC (RADAR)
02:15AM -24.3238 148.3302 350° North 301 346 19,800 -2,160 Descending Aus ATC (RADAR)
02:16AM -24.2175 148.3088 350° North 316 364 17,300 -2,100 Descending Aus ATC (RADAR)
02:17AM -24.1318 148.2915 350° North 313 360 15,200 -2,160 Descending Aus ATC (RADAR)
02:18AM -24.0675 148.2790 350° North 313 360 13,600 -2,220 Descending Aus ATC (RADAR)
02:18AM -24.0177 148.2688 349° North 312 359 12,300 -2,100 Descending Aus ATC (RADAR)
02:19AM -23.9539 148.2569 350° North 312 359 10,800 -2,040 Descending Aus ATC (RADAR)
02:20AM -23.9140 148.2484 349° North 295 339 9,800 -1,920 Descending Aus ATC (RADAR)
02:20AM -23.8506 148.2360 350° North 277 319 8,300 -1,800 Descending Aus ATC (RADAR)
02:23AM -23.5676 148.1792 345° North -2,940 Descending Aus ATC (Calculated)
02:25AM -23.5675 148.1792 263° West  Level Estimated
02:26AM -23.5675 148.1792 262° West  Level Estimated
02:27AM -23.5675 148.1792 262° West  Level Estimated
02:28AM -23.5675 148.1792 83° East  Level Estimated
02:29AM -23.5675 148.1792 83° East  Level Estimated